Time;durP1;ratioP1;P1;durP2;ratioP2;P2;SDS_P1;SDS_P2;PMS_P1;PMS_P2;Temp;Humidity;BMP_temperature;BMP_pressure;BME280_temperature;BME280_humidity;BME280_pressure;Samples;Min_cycle;Max_cycle;Signal;HPM_P1;HPM_P2
2021/04/13 00:02:27;;;;;;;44.03;29.65;;;10.60;83.40;;;;;;5095084;28;20016;-83
2021/04/13 00:05:11;;;;;;;46.40;29.27;;;10.60;83.50;;;;;;5093371;28;20469;-82
2021/04/13 00:07:41;;;;;;;47.25;29.40;;;10.50;83.60;;;;;;5093823;28;20047;-82
2021/04/13 00:10:14;;;;;;;44.20;30.77;;;10.60;83.80;;;;;;5094200;28;20044;-83
2021/04/13 00:12:40;;;;;;;48.55;29.70;;;10.50;84.00;;;;;;5091663;28;20576;-82
2021/04/13 00:15:18;;;;;;;50.28;31.77;;;10.50;84.30;;;;;;5082358;28;20107;-81
2021/04/13 00:17:45;;;;;;;46.55;30.27;;;10.50;84.60;;;;;;5079331;28;20020;-81
2021/04/13 00:20:17;;;;;;;50.53;30.85;;;10.50;84.70;;;;;;5074930;28;20115;-81
2021/04/13 00:22:44;;;;;;;54.28;31.60;;;10.50;84.90;;;;;;5091418;28;20034;-81
2021/04/13 00:25:27;;;;;;;49.95;30.63;;;10.50;85.00;;;;;;5095534;28;20016;-81
2021/04/13 00:27:53;;;;;;;50.38;29.73;;;10.50;85.20;;;;;;5094827;28;20020;-81
2021/04/13 00:30:23;;;;;;;52.83;32.55;;;10.50;85.20;;;;;;5098192;28;20024;-83
2021/04/13 00:33:01;;;;;;;57.38;33.47;;;10.40;85.30;;;;;;5101750;28;20024;-82
2021/04/13 00:35:59;;;;;;;60.92;33.85;;;10.40;85.50;;;;;;5095000;28;20043;-83
2021/04/13 00:38:30;;;;;;;66.90;35.65;;;10.40;85.60;;;;;;5090730;28;20020;-81
2021/04/13 00:41:05;;;;;;;54.70;33.25;;;10.40;85.60;;;;;;5104963;28;20042;-81
2021/04/13 00:43:31;;;;;;;66.57;36.15;;;10.40;85.80;;;;;;5096718;28;20396;-82
2021/04/13 00:45:57;;;;;;;53.55;33.28;;;10.40;85.90;;;;;;5096174;28;20024;-81
2021/04/13 00:48:30;;;;;;;60.80;34.25;;;10.40;86.10;;;;;;5093955;28;20447;-82
2021/04/13 00:51:11;;;;;;;62.78;35.30;;;10.40;86.30;;;;;;5094993;28;20111;-81
2021/04/13 00:53:37;;;;;;;54.40;31.63;;;10.40;86.40;;;;;;5093557;28;20020;-82
2021/04/13 00:56:08;;;;;;;58.78;33.33;;;10.30;86.40;;;;;;5094773;28;20020;-82
2021/04/13 00:58:43;;;;;;;51.15;32.10;;;10.30;86.50;;;;;;5093290;28;20020;-82
2021/04/13 01:01:22;;;;;;;59.88;35.28;;;10.30;86.70;;;;;;5092144;28;20031;-82
2021/04/13 01:04:01;;;;;;;58.72;35.13;;;10.30;86.80;;;;;;5093319;28;20077;-81
2021/04/13 01:06:33;;;;;;;58.47;35.92;;;10.30;86.80;;;;;;5092790;28;20040;-81
2021/04/13 01:09:11;;;;;;;61.72;36.58;;;10.30;86.90;;;;;;5092479;28;20026;-81
2021/04/13 01:11:43;;;;;;;53.30;33.70;;;10.30;87.00;;;;;;5094010;28;20067;-83
2021/04/13 01:14:11;;;;;;;52.65;34.47;;;10.30;87.20;;;;;;5092783;28;20103;-83
2021/04/13 01:16:45;;;;;;;56.85;34.42;;;10.20;87.30;;;;;;5094292;28;20520;-83
2021/04/13 01:19:31;;;;;;;53.60;34.47;;;10.20;87.40;;;;;;5092349;28;20063;-82
2021/04/13 01:22:09;;;;;;;65.22;35.38;;;10.20;87.40;;;;;;5092456;28;20022;-82
2021/04/13 01:24:39;;;;;;;54.88;34.45;;;10.20;87.50;;;;;;5092301;28;20107;-82
2021/04/13 01:27:11;;;;;;;57.50;33.30;;;10.10;87.60;;;;;;5093532;28;20445;-82
2021/04/13 01:29:38;;;;;;;59.63;34.88;;;10.10;87.80;;;;;;5092067;28;20101;-83
2021/04/13 01:32:07;;;;;;;52.40;33.65;;;10.10;87.90;;;;;;5093947;28;20032;-82
2021/04/13 01:42:21;;;;;;;66.40;36.33;;;10.10;88.30;;;;;;5093425;28;20016;-82
2021/04/13 01:44:53;;;;;;;60.22;35.00;;;10.10;88.40;;;;;;5092994;28;20489;-82
2021/04/13 01:47:21;;;;;;;56.15;33.83;;;10.10;88.50;;;;;;5093662;28;20051;-82
2021/04/13 01:49:59;;;;;;;55.08;32.08;;;10.10;88.60;;;;;;5091886;28;20466;-82
2021/04/13 01:52:28;;;;;;;57.13;34.38;;;10.10;88.60;;;;;;5093614;28;20030;-82
2021/04/13 01:54:56;;;;;;;61.80;38.53;;;10.10;88.70;;;;;;5092025;28;20473;-82
2021/04/13 01:58:16;;;;;;;83.22;49.97;;;10.10;88.80;;;;;;5091933;28;20026;-84
2021/04/13 02:00:52;;;;;;;72.00;49.08;;;10.10;88.80;;;;;;5014653;28;20021;-84
2021/04/13 02:03:26;;;;;;;;;;;10.10;88.80;;;;;;5082467;28;20039;-84
2021/04/13 02:05:58;;;;;;;84.75;53.00;;;10.10;88.20;;;;;;5096308;28;20706;-85
2021/04/13 02:08:37;;;;;;;58.75;37.15;;;10.10;88.60;;;;;;5083125;28;20359;-85
2021/04/13 02:11:20;;;;;;;55.55;36.10;;;10.00;88.80;;;;;;5092782;28;20100;-84
2021/04/13 02:13:53;;;;;;;58.60;35.78;;;10.10;89.00;;;;;;5098607;28;20051;-84
2021/04/13 02:16:24;;;;;;;68.47;40.22;;;10.00;89.00;;;;;;5085767;28;20017;-84
2021/04/13 02:18:52;;;;;;;55.40;33.70;;;10.10;89.20;;;;;;5098934;28;20027;-83
2021/04/13 02:21:41;;;;;;;56.80;35.20;;;10.00;89.20;;;;;;5098431;28;20153;-83
2021/04/13 02:24:21;;;;;;;59.53;37.33;;;10.10;89.40;;;;;;5098410;28;20016;-83
2021/04/13 02:26:54;;;;;;;61.63;37.17;;;10.00;89.60;;;;;;5098915;28;20024;-83
2021/04/13 02:29:32;;;;;;;60.03;38.65;;;10.10;89.70;;;;;;5098511;28;20020;-83
2021/04/13 02:32:01;;;;;;;66.43;42.08;;;10.10;89.80;;;;;;5098810;28;20024;-83
2021/04/13 02:34:39;;;;;;;90.82;50.35;;;10.10;89.80;;;;;;5098582;28;20366;-84
2021/04/13 02:37:34;;;;;;;101.13;59.38;;;10.10;90.00;;;;;;5098833;28;20105;-84
2021/04/13 02:40:12;;;;;;;80.85;48.95;;;10.10;90.00;;;;;;5094143;28;20056;-84
2021/04/13 02:42:52;;;;;;;89.85;50.95;;;10.10;90.00;;;;;;5098958;28;20024;-84
2021/04/13 02:45:32;;;;;;;75.45;44.47;;;10.20;90.10;;;;;;5079328;28;20366;-84
2021/04/13 02:48:11;;;;;;;80.32;42.60;;;10.20;90.20;;;;;;5079494;28;20020;-83
2021/04/13 02:50:41;;;;;;;68.28;41.20;;;10.20;90.20;;;;;;5078471;28;20051;-84
2021/04/13 02:53:09;;;;;;;79.75;42.40;;;10.20;90.30;;;;;;5097070;28;20531;-84
2021/04/13 02:55:38;;;;;;;120.53;62.42;;;10.20;90.30;;;;;;5091510;28;20485;-85
2021/04/13 02:58:08;;;;;;;139.02;72.93;;;10.20;90.40;;;;;;5081879;28;20365;-84
2021/04/13 03:00:45;;;;;;;95.53;56.95;;;10.20;90.40;;;;;;5099769;28;20020;-83
2021/04/13 03:03:33;;;;;;;93.65;49.97;;;10.30;90.50;;;;;;5098488;28;20020;-84
2021/04/13 03:06:00;;;;;;;85.63;46.63;;;10.30;90.40;;;;;;5100057;28;20426;-84
2021/04/13 03:08:28;;;;;;;77.00;40.95;;;10.30;90.50;;;;;;5100215;28;20107;-84
2021/04/13 03:11:04;;;;;;;65.05;37.92;;;10.30;90.50;;;;;;5100531;28;20020;-83
2021/04/13 03:13:35;;;;;;;;;;;10.30;90.60;;;;;;5100725;28;20382;-84
2021/04/13 03:16:03;;;;;;;81.65;44.33;;;10.30;90.30;;;;;;5098699;28;19906;-84
2021/04/13 03:18:44;;;;;;;96.25;48.28;;;10.30;90.50;;;;;;5100042;28;20045;-84
2021/04/13 03:21:27;;;;;;;122.25;67.88;;;10.30;90.60;;;;;;5099373;28;20484;-85
2021/04/13 03:23:56;;;;;;;73.90;43.47;;;10.30;90.70;;;;;;5096514;28;20058;-85
2021/04/13 03:26:36;;;;;;;62.13;40.28;;;10.40;90.70;;;;;;5094866;28;20104;-85
2021/04/13 03:29:15;;;;;;;61.60;38.50;;;10.40;90.80;;;;;;5094533;28;20027;-84
2021/04/13 03:31:41;;;;;;;62.83;38.20;;;10.40;90.80;;;;;;5082341;28;20034;-85
2021/04/13 03:34:07;;;;;;;66.35;40.60;;;10.40;90.80;;;;;;5094425;28;20047;-86
2021/04/13 03:36:34;;;;;;;77.72;44.63;;;10.40;90.80;;;;;;5094065;28;20054;-86
2021/04/13 03:39:10;;;;;;;74.82;45.13;;;10.40;90.90;;;;;;5094217;28;20021;-86
2021/04/13 03:41:40;;;;;;;;;;;10.40;90.90;;;;;;5080534;28;20020;-85
2021/04/13 03:44:06;;;;;;;88.57;52.42;;;10.40;90.60;;;;;;5094340;28;19953;-85
2021/04/13 03:46:35;;;;;;;91.53;53.40;;;10.40;90.80;;;;;;5095474;28;20091;-84
2021/04/13 03:49:04;;;;;;;91.95;54.05;;;10.40;91.00;;;;;;5094364;28;20016;-85
2021/04/13 03:51:34;;;;;;;73.05;44.85;;;10.40;91.10;;;;;;5093911;28;20030;-85
2021/04/13 03:54:16;;;;;;;69.05;42.78;;;10.40;91.20;;;;;;5094143;28;20024;-86
2021/04/13 03:56:41;;;;;;;66.32;39.92;;;10.40;91.30;;;;;;5094118;28;20027;-86
2021/04/13 03:59:16;;;;;;;70.85;39.67;;;10.40;91.40;;;;;;5095114;28;20016;-85
2021/04/13 04:01:42;;;;;;;69.65;42.55;;;10.40;91.40;;;;;;5093777;28;20109;-86
2021/04/13 04:04:20;;;;;;;71.57;42.65;;;10.40;91.40;;;;;;5094087;28;20162;-86
2021/04/13 04:06:59;;;;;;;65.95;37.47;;;10.50;91.40;;;;;;5093431;28;20355;-78
2021/04/13 04:09:31;;;;;;;60.30;35.90;;;10.50;91.40;;;;;;5090229;28;20031;-81
2021/04/13 04:12:02;;;;;;;54.75;33.70;;;10.40;91.40;;;;;;5093628;28;20035;-82
2021/04/13 04:14:30;;;;;;;56.92;32.13;;;10.40;91.40;;;;;;5091313;28;20021;-81
2021/04/13 04:17:22;;;;;;;61.10;35.03;;;10.40;91.40;;;;;;5093736;28;20446;-81
2021/04/13 04:20:00;;;;;;;56.10;31.92;;;10.30;91.40;;;;;;5088025;28;20036;-80
2021/04/13 04:22:27;;;;;;;62.20;32.95;;;10.30;91.60;;;;;;5093551;28;20019;-87
2021/04/13 04:24:54;;;;;;;67.38;34.72;;;10.30;91.70;;;;;;5093585;28;20378;-87
2021/04/13 04:27:34;;;;;;;63.67;33.05;;;10.20;91.80;;;;;;5093575;28;20462;-72
2021/04/13 04:30:22;;;;;;;59.20;33.65;;;10.20;92.00;;;;;;5099608;28;20020;-82
2021/04/13 04:32:49;;;;;;;61.90;33.45;;;10.30;92.20;;;;;;5093181;28;20031;-82
2021/04/13 04:35:41;;;;;;;61.92;34.35;;;10.20;92.20;;;;;;5092144;28;20072;-72
2021/04/13 04:38:11;;;;;;;72.20;37.92;;;10.30;92.30;;;;;;5092516;28;20035;-85
2021/04/13 04:40:50;;;;;;;71.18;38.47;;;10.30;92.40;;;;;;5089781;28;20476;-86
2021/04/13 04:43:18;;;;;;;63.75;36.25;;;10.40;92.50;;;;;;5092733;28;20060;-78
2021/04/13 04:45:44;;;;;;;68.68;36.05;;;10.40;92.50;;;;;;5093035;28;20381;-83
2021/04/13 04:48:30;;;;;;;65.63;35.15;;;10.40;92.50;;;;;;5092816;28;20024;-72
2021/04/13 04:50:58;;;;;;;74.90;36.33;;;10.50;92.60;;;;;;5091916;28;20024;-76
2021/04/13 04:53:28;;;;;;;71.95;38.58;;;10.50;92.60;;;;;;5092635;28;20478;-76
2021/04/13 04:55:55;;;;;;;72.15;39.00;;;10.50;92.70;;;;;;5090035;28;20019;-77
2021/04/13 04:58:21;;;;;;;75.55;38.90;;;10.60;92.70;;;;;;5092504;28;20031;-77
2021/04/13 05:00:48;;;;;;;77.20;40.40;;;10.60;92.80;;;;;;5092332;28;20030;-79
2021/04/13 05:03:15;;;;;;;81.88;41.92;;;10.70;92.80;;;;;;5091664;28;20024;-68
2021/04/13 05:05:41;;;;;;;100.82;48.75;;;10.80;92.80;;;;;;5089234;28;20147;-66
2021/04/13 05:08:07;;;;;;;152.70;65.75;;;10.80;92.70;;;;;;5092573;28;20127;-68
2021/04/13 05:10:33;;;;;;;123.45;57.75;;;10.80;92.60;;;;;;5088864;28;20024;-81
2021/04/13 05:12:59;;;;;;;96.78;49.97;;;10.90;92.60;;;;;;5078267;28;20031;-82
2021/04/13 05:15:24;;;;;;;120.18;55.05;;;10.90;92.60;;;;;;5090138;28;20031;-72
2021/04/13 05:17:50;;;;;;;174.50;66.82;;;11.00;92.60;;;;;;5088541;28;20073;-83
2021/04/13 05:20:16;;;;;;;150.10;58.17;;;11.00;92.50;;;;;;5084764;28;20023;-78
2021/04/13 05:22:43;;;;;;;126.75;52.78;;;11.10;92.60;;;;;;5093815;28;20016;-79
2021/04/13 05:25:09;;;;;;;129.70;53.75;;;11.20;92.90;;;;;;5093885;28;20095;-79
2021/04/13 05:27:35;;;;;;;111.05;47.38;;;11.20;92.50;;;;;;5085117;28;20047;-79
2021/04/13 05:30:01;;;;;;;82.32;38.83;;;11.30;92.50;;;;;;5094885;28;20028;-79
2021/04/13 05:32:26;;;;;;;120.35;53.30;;;11.30;92.50;;;;;;5100144;28;20051;-79
2021/04/13 05:34:52;;;;;;;142.15;62.85;;;11.50;92.50;;;;;;5089843;28;20020;-78
2021/04/13 05:37:18;;;;;;;165.48;75.10;;;11.50;92.30;;;;;;5092770;28;20066;-77
2021/04/13 05:39:44;;;;;;;140.48;65.88;;;11.60;92.20;;;;;;5093445;28;20028;-78
2021/04/13 05:42:23;;;;;;;73.97;41.42;;;11.60;92.10;;;;;;5087486;28;20052;-76
2021/04/13 05:44:50;;;;;;;57.13;32.10;;;11.70;92.00;;;;;;5097555;28;20028;-87
2021/04/13 05:47:17;;;;;;;58.45;33.80;;;11.70;91.50;;;;;;5088276;28;20017;-76
2021/04/13 05:49:43;;;;;;;59.25;33.67;;;11.70;91.20;;;;;;5092448;28;20020;-71
2021/04/13 05:52:08;;;;;;;58.78;32.17;;;11.70;91.10;;;;;;5094601;28;20081;-83
2021/04/13 05:54:34;;;;;;;63.15;33.33;;;11.80;91.00;;;;;;5093756;28;20480;-84
2021/04/13 05:57:01;;;;;;;61.90;35.15;;;11.80;90.80;;;;;;5082703;28;20473;-81
2021/04/13 05:59:31;;;;;;;62.13;34.75;;;11.70;90.60;;;;;;5091835;28;20069;-82
2021/04/13 06:01:57;;;;;;;64.80;37.10;;;11.70;90.40;;;;;;5092860;28;20020;-80
2021/04/13 06:04:23;;;;;;;62.35;37.38;;;11.70;90.30;;;;;;5091106;28;20350;-81
2021/04/13 06:06:49;;;;;;;60.88;35.30;;;11.60;90.30;;;;;;5091094;28;20055;-82
2021/04/13 06:09:16;;;;;;;62.92;36.72;;;11.70;90.40;;;;;;5092207;28;20031;-82
2021/04/13 06:11:43;;;;;;;62.20;34.13;;;11.70;90.40;;;;;;5092813;28;20464;-81
2021/04/13 06:14:10;;;;;;;64.47;36.85;;;11.70;90.40;;;;;;5091303;28;20019;-82
2021/04/13 06:16:38;;;;;;;61.88;34.80;;;11.70;90.30;;;;;;5091837;28;20023;-82
2021/04/13 06:19:05;;;;;;;62.47;34.15;;;11.80;90.30;;;;;;5091243;28;20023;-80
2021/04/13 06:21:31;;;;;;;60.50;33.33;;;11.80;90.30;;;;;;5091780;28;20454;-82
2021/04/13 06:23:57;;;;;;;61.03;33.50;;;11.90;90.30;;;;;;5093401;28;20095;-83
2021/04/13 06:26:23;;;;;;;62.30;33.58;;;11.90;90.20;;;;;;5091579;28;20069;-82
2021/04/13 06:28:48;;;;;;;59.63;32.20;;;11.90;90.10;;;;;;5091744;28;20020;-81
2021/04/13 06:31:14;;;;;;;59.03;32.40;;;12.00;90.00;;;;;;5091079;28;20069;-81
2021/04/13 06:33:40;;;;;;;57.70;32.92;;;12.00;90.00;;;;;;5091517;28;20385;-82
2021/04/13 06:36:07;;;;;;;64.45;34.58;;;12.10;90.00;;;;;;5091315;28;20024;-81
2021/04/13 06:38:38;;;;;;;60.58;33.33;;;12.10;89.80;;;;;;5091436;28;20074;-82
2021/04/13 06:41:09;;;;;;;58.92;31.83;;;12.20;89.30;;;;;;5091141;28;20116;-81
2021/04/13 06:43:44;;;;;;;59.92;34.40;;;12.30;88.60;;;;;;5093468;28;20517;-82
2021/04/13 06:46:30;;;;;;;65.70;34.92;;;12.30;88.50;;;;;;5091628;28;20377;-80
2021/04/13 06:49:26;;;;;;;56.47;31.88;;;12.30;87.90;;;;;;5091110;28;20024;-81
2021/04/13 06:52:09;;;;;;;57.85;31.95;;;12.30;87.60;;;;;;5091543;28;20366;-81
2021/04/13 06:54:50;;;;;;;52.88;30.92;;;12.20;87.60;;;;;;5091563;28;20154;-81
2021/04/13 06:57:31;;;;;;;54.15;28.60;;;12.30;87.70;;;;;;5079201;28;20012;-81
2021/04/13 07:00:08;;;;;;;57.97;31.23;;;12.30;87.30;;;;;;5094030;28;20028;-81
2021/04/13 07:02:50;;;;;;;53.05;28.00;;;12.40;87.10;;;;;;5096909;28;20012;-82
2021/04/13 07:05:21;;;;;;;51.05;28.80;;;12.40;86.80;;;;;;5096015;28;20391;-82
2021/04/13 07:07:59;;;;;;;52.13;30.45;;;12.40;86.70;;;;;;5094806;28;20097;-83
2021/04/13 07:10:25;;;;;;;59.40;34.88;;;12.40;87.00;;;;;;5095839;28;20031;-81
2021/04/13 07:13:21;;;;;;;53.40;29.88;;;12.50;86.80;;;;;;5096364;28;20045;-82
2021/04/13 07:16:15;;;;;;;62.85;31.42;;;12.60;86.80;;;;;;5094911;28;20028;-82
2021/04/13 07:19:02;;;;;;;57.15;32.63;;;12.60;86.60;;;;;;5085077;28;20311;-83
2021/04/13 07:21:48;;;;;;;56.78;30.10;;;12.70;86.50;;;;;;5082495;28;20107;-82
2021/04/13 07:24:32;;;;;;;52.28;30.95;;;12.80;86.10;;;;;;5094658;28;20024;-82
2021/04/13 07:27:01;;;;;;;52.05;29.00;;;12.80;85.50;;;;;;5095992;28;20031;-82
2021/04/13 07:29:33;;;;;;;51.53;29.08;;;12.80;85.30;;;;;;5094596;28;20450;-82
2021/04/13 07:32:04;;;;;;;54.70;30.83;;;12.80;84.60;;;;;;5095177;28;20030;-82
2021/04/13 07:34:31;;;;;;;41.53;25.55;;;12.70;84.50;;;;;;5095490;28;20036;-82
2021/04/13 07:37:04;;;;;;;55.75;30.13;;;12.70;84.50;;;;;;5096510;28;20095;-81
2021/04/13 07:39:31;;;;;;;49.15;25.13;;;12.70;84.40;;;;;;5095253;28;20020;-82
2021/04/13 07:42:04;;;;;;;49.13;29.08;;;12.70;84.20;;;;;;5094930;28;20024;-82
2021/04/13 07:44:54;;;;;;;52.63;28.77;;;12.60;83.90;;;;;;5094478;28;20028;-82
2021/04/13 07:47:29;;;;;;;55.45;31.35;;;12.60;84.10;;;;;;5094414;28;20020;-81
2021/04/13 07:49:58;;;;;;;;;;;12.70;84.10;;;;;;5077476;28;20028;-82
2021/04/13 07:52:45;;;;;;;50.45;27.80;;;12.60;83.70;;;;;;5085547;28;19908;-82
2021/04/13 07:55:28;;;;;;;52.40;27.70;;;12.50;83.50;;;;;;5075534;28;20415;-81
2021/04/13 07:58:25;;;;;;;49.83;27.10;;;12.50;83.50;;;;;;5081817;28;20013;-83
2021/04/13 08:00:52;;;;;;;48.80;26.98;;;12.50;83.60;;;;;;5090543;28;20032;-82
2021/04/13 08:03:32;;;;;;;51.95;25.80;;;12.50;83.60;;;;;;5104648;28;20042;-81
2021/04/13 08:06:00;;;;;;;56.47;31.13;;;12.50;83.50;;;;;;5098126;28;20012;-81
2021/04/13 08:08:38;;;;;;;66.32;35.40;;;12.50;83.20;;;;;;5091078;28;20036;-82
2021/04/13 08:11:24;;;;;;;60.83;31.70;;;12.50;83.40;;;;;;5095038;28;20120;-81
2021/04/13 08:13:53;;;;;;;59.53;30.33;;;12.50;83.50;;;;;;5094374;28;20036;-81
2021/04/13 08:16:28;;;;;;;56.50;29.83;;;12.50;83.20;;;;;;5094155;28;20027;-81
2021/04/13 08:19:14;;;;;;;54.47;30.83;;;12.50;82.90;;;;;;5098598;28;20126;-80
2021/04/13 08:21:40;;;;;;;47.40;27.13;;;12.40;82.90;;;;;;5100837;28;20103;-82
2021/04/13 08:24:31;;;;;;;46.67;25.38;;;12.40;83.00;;;;;;5096721;28;20108;-81
2021/04/13 08:27:08;;;;;;;47.10;26.23;;;12.40;83.20;;;;;;5096234;28;20057;-81
2021/04/13 08:29:47;;;;;;;51.42;27.58;;;12.50;83.20;;;;;;5095766;28;20032;-81
2021/04/13 08:35:30;;;;;;;42.72;24.15;;;12.60;83.50;;;;;;5082521;28;20074;-81
2021/04/13 08:38:13;;;;;;;50.00;25.73;;;12.60;83.30;;;;;;5093391;28;20043;-81
2021/04/13 08:41:01;;;;;;;45.35;25.27;;;12.70;82.60;;;;;;5093657;28;20030;-82
2021/04/13 08:43:40;;;;;;;39.70;22.50;;;12.60;82.50;;;;;;5080983;28;20436;-82
2021/04/13 08:46:17;;;;;;;51.38;29.38;;;12.70;82.80;;;;;;5093294;28;20077;-80
2021/04/13 08:48:59;;;;;;;45.65;24.77;;;12.70;82.70;;;;;;5093553;28;20031;-81
2021/04/13 08:51:38;;;;;;;49.35;24.17;;;12.80;82.30;;;;;;5094450;28;20031;-81
2021/04/13 08:54:32;;;;;;;42.90;23.70;;;12.80;81.70;;;;;;5092811;28;20591;-82
2021/04/13 08:57:31;;;;;;;39.67;23.30;;;12.80;81.60;;;;;;5094356;28;20016;-81
2021/04/13 08:59:58;;;;;;;44.45;26.63;;;12.80;81.30;;;;;;5093037;28;20069;-82
2021/04/13 09:02:38;;;;;;;47.20;26.88;;;12.80;81.30;;;;;;5092810;28;20020;-82
2021/04/13 09:05:13;;;;;;;43.83;24.65;;;12.80;81.50;;;;;;5092463;28;20012;-84
2021/04/13 09:07:47;;;;;;;49.90;25.45;;;12.90;81.30;;;;;;5093708;28;20047;-81
2021/04/13 09:10:37;;;;;;;47.75;26.85;;;12.80;80.80;;;;;;5092762;28;20028;-82
2021/04/13 09:13:06;;;;;;;42.75;24.42;;;12.80;80.70;;;;;;5080584;28;20024;-81
2021/04/13 09:15:32;;;;;;;42.45;24.30;;;12.80;80.30;;;;;;5092450;28;20020;-82
2021/04/13 09:18:15;;;;;;;41.67;23.50;;;12.70;80.20;;;;;;5094031;28;20020;-81
2021/04/13 09:20:45;;;;;;;42.47;23.35;;;12.70;80.80;;;;;;5092436;28;20553;-81
2021/04/13 09:23:25;;;;;;;45.17;22.73;;;12.70;81.10;;;;;;5091508;28;20115;-82
2021/04/13 09:25:51;;;;;;;45.30;24.98;;;12.70;80.90;;;;;;5092536;28;20492;-81
2021/04/13 09:28:25;;;;;;;41.08;23.92;;;12.70;81.00;;;;;;5092749;28;20108;-81
2021/04/13 09:31:00;;;;;;;44.15;24.35;;;12.70;81.50;;;;;;5092349;28;20107;-81
2021/04/13 09:33:36;;;;;;;52.57;26.70;;;12.70;81.30;;;;;;5092753;28;20030;-81
2021/04/13 09:36:37;;;;;;;44.30;26.08;;;12.70;81.40;;;;;;5093009;28;20024;-81
2021/04/13 09:39:06;;;;;;;49.42;25.70;;;12.70;81.20;;;;;;5093953;28;20390;-81
2021/04/13 09:41:55;;;;;;;60.70;36.33;;;12.80;81.00;;;;;;5092500;28;20103;-82
2021/04/13 09:44:42;;;;;;;86.10;54.08;;;12.80;80.90;;;;;;5092383;28;20024;-81
2021/04/13 09:47:26;;;;;;;41.65;24.63;;;12.80;80.80;;;;;;5080751;28;20423;-80
2021/04/13 09:50:28;;;;;;;43.47;26.25;;;12.90;80.70;;;;;;5093337;28;20077;-80
2021/04/13 09:53:35;;;;;;;48.22;23.42;;;12.90;80.60;;;;;;5093283;28;20093;-79
2021/04/13 09:56:19;;;;;;;41.03;24.08;;;12.90;80.00;;;;;;5092108;28;20027;-82
2021/04/13 09:59:03;;;;;;;47.88;26.25;;;13.00;79.80;;;;;;5078217;28;20348;-82
2021/04/13 10:01:54;;;;;;;42.72;26.05;;;13.00;79.80;;;;;;5093201;28;20586;-81
2021/04/13 10:04:52;;;;;;;44.63;24.45;;;13.10;79.20;;;;;;5092022;28;20031;-81
2021/04/13 10:07:30;;;;;;;41.33;23.02;;;13.10;79.00;;;;;;5091644;28;20176;-80
2021/04/13 10:09:58;;;;;;;40.67;24.02;;;13.20;78.50;;;;;;5093412;28;20024;-81
2021/04/13 10:12:49;;;;;;;41.45;23.83;;;13.20;78.40;;;;;;5093142;28;20027;-81
2021/04/13 10:15:32;;;;;;;37.70;22.45;;;13.30;78.20;;;;;;5093154;28;20028;-81
2021/04/13 10:18:26;;;;;;;54.03;28.95;;;13.40;77.70;;;;;;5092068;28;20048;-81
2021/04/13 10:21:19;;;;;;;52.50;25.98;;;13.50;78.20;;;;;;5092961;28;20103;-81
2021/04/13 10:24:03;;;;;;;46.95;26.02;;;13.50;78.10;;;;;;5093060;28;20020;-81
2021/04/13 10:26:34;;;;;;;49.90;25.77;;;13.50;78.10;;;;;;5079808;28;20040;-81
2021/04/13 10:29:39;;;;;;;46.50;25.27;;;13.40;78.00;;;;;;5078375;28;20473;-81
2021/04/13 10:32:28;;;;;;;48.55;25.02;;;13.40;77.90;;;;;;5084255;28;20027;-81
2021/04/13 10:35:31;;;;;;;46.38;26.83;;;13.30;78.30;;;;;;5095986;28;20016;-81
2021/04/13 10:37:57;;;;;;;43.63;25.33;;;13.20;78.70;;;;;;5096624;28;20027;-81
2021/04/13 10:40:38;;;;;;;55.47;25.70;;;13.20;78.70;;;;;;5098450;28;20020;-81
2021/04/13 10:43:26;;;;;;;43.35;24.58;;;13.20;79.00;;;;;;5096496;28;20371;-81
2021/04/13 10:46:32;;;;;;;48.58;24.10;;;13.00;78.70;;;;;;5096989;28;20027;-80
2021/04/13 10:49:16;;;;;;;43.97;27.23;;;12.80;78.90;;;;;;4990099;28;20069;-80
2021/04/13 10:51:55;;;;;;;46.00;26.55;;;12.70;79.40;;;;;;5001212;28;20471;-80
2021/04/13 10:54:39;;;;;;;43.92;25.42;;;12.60;79.90;;;;;;5096361;28;20028;-81
2021/04/13 10:57:27;;;;;;;53.92;27.83;;;12.50;80.40;;;;;;5099450;28;20023;-81
2021/04/13 11:00:10;;;;;;;49.25;27.13;;;12.40;80.70;;;;;;5107126;28;20120;-82
2021/04/13 11:02:35;;;;;;;44.08;26.70;;;12.30;81.10;;;;;;5104590;28;20023;-83
2021/04/13 11:05:36;;;;;;;48.65;26.90;;;12.20;81.20;;;;;;5095798;28;20020;-80
2021/04/13 11:08:13;;;;;;;50.22;29.02;;;12.10;81.60;;;;;;5097660;28;20044;-81
2021/04/13 11:10:48;;;;;;;52.63;29.48;;;12.00;82.10;;;;;;5095527;28;20020;-81
2021/04/13 11:13:54;;;;;;;45.88;27.30;;;12.00;82.70;;;;;;5085559;28;20025;-81
2021/04/13 11:16:43;;;;;;;50.07;28.83;;;12.00;83.10;;;;;;5082932;28;20016;-81
2021/04/13 11:19:18;;;;;;;45.42;28.63;;;12.00;83.40;;;;;;5095838;28;20020;-81
2021/04/13 11:22:02;;;;;;;51.97;29.00;;;12.00;83.60;;;;;;5096935;28;20358;-81
2021/04/13 11:25:00;;;;;;;58.97;30.92;;;12.00;84.30;;;;;;5096555;28;20012;-81
2021/04/13 11:27:58;;;;;;;55.88;31.60;;;12.00;83.80;;;;;;5095702;28;20040;-81
2021/04/13 11:31:01;;;;;;;57.45;31.67;;;12.00;83.90;;;;;;5097157;28;20110;-81
2021/04/13 11:33:45;;;;;;;71.43;36.50;;;12.00;83.90;;;;;;5086921;28;20035;-82
2021/04/13 11:36:40;;;;;;;52.53;30.85;;;12.00;84.30;;;;;;5096679;28;20024;-82
2021/04/13 11:39:24;;;;;;;60.35;32.50;;;12.00;84.20;;;;;;5094960;28;20069;-82
2021/04/13 11:42:10;;;;;;;55.83;30.50;;;12.00;84.30;;;;;;5081975;28;20024;-80
2021/04/13 11:44:41;;;;;;;63.95;33.67;;;12.00;84.40;;;;;;5093771;28;20020;-80
2021/04/13 11:47:29;;;;;;;59.60;32.25;;;12.10;84.70;;;;;;5096321;28;20028;-81
2021/04/13 11:50:17;;;;;;;48.35;30.15;;;12.10;84.80;;;;;;5094903;28;20024;-81
2021/04/13 11:52:52;;;;;;;49.42;30.15;;;12.10;84.60;;;;;;5096163;28;20085;-81
2021/04/13 11:55:27;;;;;;;57.60;30.70;;;12.10;84.70;;;;;;5097387;28;20016;-82
2021/04/13 11:58:13;;;;;;;61.83;32.42;;;12.10;84.70;;;;;;5098141;28;20024;-82
2021/04/13 12:00:39;;;;;;;55.35;30.08;;;12.20;84.80;;;;;;5082773;28;20028;-82
2021/04/13 12:03:31;;;;;;;56.63;31.55;;;12.20;84.70;;;;;;5093889;28;20035;-81
2021/04/13 12:06:00;;;;;;;52.67;29.75;;;12.20;84.80;;;;;;5094608;28;20019;-82
2021/04/13 12:08:31;;;;;;;55.92;29.45;;;12.30;84.90;;;;;;5094022;28;20067;-83
2021/04/13 12:10:59;;;;;;;59.78;30.20;;;12.20;84.70;;;;;;5094884;28;20043;-81
2021/04/13 12:13:46;;;;;;;53.92;31.38;;;12.20;84.50;;;;;;5093944;28;20108;-82
2021/04/13 12:16:19;;;;;;;58.58;31.05;;;12.20;84.40;;;;;;5094959;28;20036;-82
2021/04/13 12:19:06;;;;;;;74.78;40.17;;;12.20;84.60;;;;;;5095203;28;20020;-81
2021/04/13 12:21:39;;;;;;;86.13;48.15;;;12.20;84.70;;;;;;5094062;28;20020;-81
2021/04/13 12:24:38;;;;;;;68.63;41.70;;;12.20;85.30;;;;;;5093513;28;20028;-81
2021/04/13 12:27:25;;;;;;;52.78;28.25;;;12.30;85.30;;;;;;5092737;28;20044;-83
2021/04/13 12:30:12;;;;;;;54.40;28.05;;;12.40;84.80;;;;;;5093868;28;20020;-82
2021/04/13 12:32:44;;;;;;;45.05;25.00;;;12.40;84.50;;;;;;5052312;28;20408;-81
2021/04/13 12:35:10;;;;;;;43.58;23.95;;;12.40;84.10;;;;;;5093493;28;20097;-81
2021/04/13 12:37:45;;;;;;;42.30;22.77;;;12.50;84.00;;;;;;5093407;28;20030;-81
2021/04/13 12:40:17;;;;;;;42.20;22.85;;;12.50;83.90;;;;;;5094769;28;20051;-82
2021/04/13 12:42:50;;;;;;;34.55;21.65;;;12.50;83.90;;;;;;5094480;28;20044;-81
2021/04/13 12:45:29;;;;;;;33.38;20.73;;;12.50;83.90;;;;;;5094474;28;20428;-81
2021/04/13 12:48:40;;;;;;;35.72;20.75;;;12.50;83.90;;;;;;5093282;28;20030;-81
2021/04/13 12:51:09;;;;;;;33.05;19.08;;;12.50;83.90;;;;;;5093069;28;20073;-81
2021/04/13 12:53:34;;;;;;;40.70;23.15;;;12.60;83.60;;;;;;5087639;28;20128;-82
2021/04/13 12:56:25;;;;;;;37.17;19.50;;;12.60;83.80;;;;;;5086059;28;20051;-82
2021/04/13 12:58:50;;;;;;;36.45;21.23;;;12.70;83.60;;;;;;5080982;28;20028;-82
2021/04/13 13:01:32;;;;;;;42.53;24.30;;;12.80;83.50;;;;;;5095070;28;20024;-82
2021/04/13 13:04:13;;;;;;;33.55;21.58;;;12.80;83.40;;;;;;5094256;28;20529;-81
2021/04/13 13:06:42;;;;;;;41.88;23.65;;;13.00;83.40;;;;;;5097974;28;20111;-82
2021/04/13 13:09:29;;;;;;;38.53;22.40;;;13.20;83.10;;;;;;5097732;28;20492;-83
2021/04/13 13:12:08;;;;;;;33.58;21.08;;;13.50;82.80;;;;;;5098206;28;20043;-81
2021/04/13 13:14:39;;;;;;;38.67;22.38;;;13.80;81.90;;;;;;5082900;28;20023;-81
2021/04/13 13:17:07;;;;;;;41.17;23.25;;;14.10;80.50;;;;;;5094412;28;20024;-81
2021/04/13 13:19:44;;;;;;;42.63;24.15;;;14.30;79.20;;;;;;5093995;28;20040;-82
2021/04/13 13:22:19;;;;;;;48.30;27.00;;;14.40;78.70;;;;;;5096226;28;20023;-81
2021/04/13 13:24:49;;;;;;;43.00;26.63;;;14.50;77.60;;;;;;5099920;28;20027;-82
2021/04/13 13:27:33;;;;;;;48.05;28.38;;;14.50;77.00;;;;;;5095502;28;20020;-81